createdAt,value
2019-04-05T00:01:26.291Z,60.67
2019-04-05T00:04:03.534Z,60.97
2019-04-05T00:06:37.289Z,60.89
2019-04-05T00:09:11.719Z,60.83
2019-04-05T00:11:45.253Z,61.00
2019-04-05T00:14:19.339Z,60.56
2019-04-05T00:16:53.746Z,60.56
2019-04-05T00:19:28.122Z,60.35
2019-04-05T00:22:02.799Z,60.49
2019-04-05T00:24:35.877Z,60.49
2019-04-05T00:27:10.295Z,60.39
2019-04-05T00:29:44.838Z,60.13
2019-04-05T00:32:19.144Z,60.51
2019-04-05T00:34:53.714Z,60.89
2019-04-05T00:37:28.362Z,60.66
2019-04-05T00:40:02.767Z,60.79
2019-04-05T00:42:37.289Z,60.79
2019-04-05T00:45:11.913Z,60.99
2019-04-05T00:47:45.149Z,60.90
2019-04-05T00:50:19.784Z,60.88
2019-04-05T00:52:54.123Z,60.92
2019-04-05T00:55:28.888Z,60.82
2019-04-05T00:58:03.303Z,60.82
2019-04-05T01:00:38.300Z,60.97
2019-04-05T01:03:13.311Z,60.89
2019-04-05T01:05:48.277Z,60.89
2019-04-05T01:08:23.295Z,60.77
2019-04-05T01:10:57.712Z,60.67
2019-04-05T01:13:32.374Z,60.38
2019-04-05T01:16:07.098Z,60.64
2019-04-05T01:18:41.520Z,61.25
2019-04-05T01:21:20.786Z,61.25
2019-04-05T01:23:57.368Z,61.47
2019-04-05T01:26:32.707Z,61.40
2019-04-05T01:29:07.291Z,60.97
2019-04-05T01:31:41.922Z,60.60
2019-04-05T01:34:14.874Z,60.60
2019-04-05T01:36:48.967Z,60.76
2019-04-05T01:39:23.278Z,60.59
2019-04-05T01:41:57.884Z,60.47
2019-04-05T01:44:31.275Z,60.31
2019-04-05T01:47:05.340Z,60.22
2019-04-05T01:49:41.302Z,60.50
2019-04-05T01:52:15.731Z,60.37
2019-04-05T01:54:50.141Z,60.49
2019-04-05T01:58:53.652Z,60.55
2019-04-05T02:01:28.114Z,60.46
2019-04-05T02:04:03.143Z,60.46
2019-04-05T02:06:37.719Z,60.79
2019-04-05T02:09:13.645Z,60.87
2019-04-05T02:11:47.961Z,61.01
2019-04-05T02:14:22.339Z,61.12
2019-04-05T02:16:56.739Z,61.10
2019-04-05T02:19:31.315Z,61.18
2019-04-05T02:22:05.961Z,61.35
2019-04-05T02:24:38.879Z,61.50
2019-04-05T02:27:13.121Z,61.50
2019-04-05T02:29:47.665Z,61.90
2019-04-05T02:32:22.135Z,62.18
2019-04-05T02:34:56.803Z,62.19
2019-04-05T02:37:29.872Z,62.12
2019-04-05T02:40:02.885Z,61.93
2019-04-05T02:42:35.687Z,61.99
2019-04-05T02:45:12.085Z,61.83
2019-04-05T02:47:52.085Z,61.76
2019-04-05T02:50:30.753Z,61.63
2019-04-05T02:53:05.286Z,61.67
2019-04-05T02:55:42.740Z,61.63
2019-04-05T02:58:17.708Z,61.63
2019-04-05T03:00:51.109Z,61.37
2019-04-05T03:03:25.709Z,61.65
2019-04-05T03:05:58.755Z,61.68
2019-04-05T03:08:33.251Z,61.76
2019-04-05T03:11:17.731Z,61.91
2019-04-05T03:13:55.055Z,62.21
2019-04-05T03:16:40.870Z,62.45
2019-04-05T03:19:24.689Z,62.36
2019-04-05T03:22:04.864Z,62.29
2019-04-05T03:24:42.300Z,62.53
2019-04-05T03:27:27.662Z,62.40
2019-04-05T03:30:02.495Z,62.58
2019-04-05T03:32:37.284Z,62.72
2019-04-05T03:35:12.278Z,62.83
2019-04-05T03:37:47.668Z,62.79
2019-04-05T03:40:22.339Z,62.36
2019-04-05T03:42:57.583Z,62.30
2019-04-05T03:45:32.309Z,61.94
2019-04-05T03:48:08.675Z,61.57
2019-04-05T03:50:45.164Z,61.57
2019-04-05T03:53:18.493Z,61.43
2019-04-05T03:55:54.328Z,61.47
2019-04-05T03:58:28.885Z,61.22
2019-04-05T04:01:03.696Z,61.54
2019-04-05T04:08:30.263Z,61.47
2019-04-05T04:11:04.731Z,61.47
2019-04-05T04:13:39.071Z,61.52
2019-04-05T04:16:13.863Z,61.93
2019-04-05T04:18:48.688Z,61.84
2019-04-05T04:21:59.282Z,62.00
2019-04-05T04:24:34.843Z,62.00
2019-04-05T04:27:09.904Z,61.97
2019-04-05T04:29:43.095Z,61.86
2019-04-05T04:32:16.422Z,61.90
2019-04-05T04:34:50.878Z,61.63
2019-04-05T04:37:23.860Z,61.63
2019-04-05T04:39:58.269Z,61.98
2019-04-05T04:42:32.653Z,62.02
2019-04-05T04:45:12.471Z,61.87
2019-04-05T04:47:46.527Z,61.89
2019-04-05T04:50:21.412Z,61.89
2019-04-05T04:52:56.304Z,62.08
2019-04-05T04:55:30.878Z,62.08
2019-04-05T04:58:03.649Z,61.94
2019-04-05T05:00:38.327Z,61.94
2019-04-05T05:03:13.140Z,62.09
2019-04-05T05:05:47.700Z,62.28
2019-04-05T05:08:22.116Z,62.09
2019-04-05T05:10:56.752Z,62.28
2019-04-05T05:13:31.304Z,62.28
2019-04-05T05:16:06.267Z,61.89
2019-04-05T05:18:40.860Z,61.89
2019-04-05T05:21:14.094Z,61.46
2019-04-05T05:23:48.460Z,61.61
2019-04-05T05:26:23.253Z,61.47
2019-04-05T05:28:57.702Z,61.46
2019-04-05T05:31:30.675Z,61.37
2019-04-05T05:34:04.944Z,61.17
2019-04-05T05:36:39.273Z,61.10
2019-04-05T05:39:13.710Z,61.15
2019-04-05T05:41:48.097Z,60.96
2019-04-05T05:44:22.715Z,60.75
2019-04-05T05:46:57.086Z,60.75
2019-04-05T05:49:32.941Z,60.22
2019-04-05T05:52:07.682Z,60.22
2019-04-05T05:54:42.128Z,60.04
2019-04-05T05:57:16.660Z,60.73
2019-04-05T05:59:50.944Z,60.43
2019-04-05T06:02:25.276Z,60.23
2019-04-05T06:04:59.720Z,59.67
2019-04-05T06:07:34.080Z,59.80
2019-04-05T06:10:09.619Z,60.01
2019-04-05T06:12:44.043Z,60.11
2019-04-05T06:15:18.290Z,59.84
2019-04-05T06:18:04.205Z,59.32
2019-04-05T06:20:30.279Z,59.32
2019-04-05T06:23:04.675Z,59.06
2019-04-05T06:25:39.292Z,59.08
2019-04-05T06:28:13.735Z,59.01
2019-04-05T06:30:48.265Z,59.05
2019-04-05T06:33:31.282Z,58.69
2019-04-05T06:36:00.133Z,58.34
2019-04-05T06:38:34.664Z,58.01
2019-04-05T06:41:09.272Z,57.70
2019-04-05T06:43:44.634Z,57.70
2019-04-05T06:46:18.934Z,57.92
2019-04-05T06:48:51.856Z,58.03
2019-04-05T06:51:25.941Z,57.89
2019-04-05T06:54:03.166Z,58.02
2019-04-05T06:56:38.267Z,58.23
2019-04-05T06:59:12.911Z,57.81
2019-04-05T07:01:47.677Z,58.07
2019-04-05T07:04:22.284Z,58.07
2019-04-05T07:06:56.697Z,58.15
2019-04-05T07:09:33.920Z,57.93
2019-04-05T07:12:07.093Z,57.90
2019-04-05T07:14:41.617Z,58.14
2019-04-05T07:17:15.935Z,58.14
2019-04-05T07:19:48.844Z,58.19
2019-04-05T07:22:36.976Z,58.22
2019-04-05T07:24:59.595Z,58.04
2019-04-05T07:27:33.930Z,58.04
2019-04-05T07:30:08.652Z,57.86
2019-04-05T07:32:43.082Z,57.96
2019-04-05T07:35:17.318Z,58.11
2019-04-05T07:39:36.635Z,57.36
2019-04-05T07:42:10.934Z,57.36
2019-04-05T07:44:43.797Z,57.26
2019-04-05T07:47:17.931Z,57.42
2019-04-05T07:49:52.266Z,57.42
2019-04-05T07:52:26.693Z,56.72
2019-04-05T07:55:01.019Z,56.83
2019-04-05T08:01:20.661Z,56.20
2019-04-05T08:03:57.928Z,56.20
2019-04-05T08:06:33.335Z,56.17
2019-04-05T08:09:15.275Z,56.15
2019-04-05T08:11:50.785Z,55.58
2019-04-05T08:14:24.393Z,55.17
2019-04-05T08:16:58.710Z,54.82
2019-04-05T08:19:32.934Z,54.69
2019-04-05T08:22:07.400Z,54.69
2019-04-05T08:24:41.939Z,54.35
2019-04-05T08:27:16.442Z,54.38
2019-04-05T08:29:50.874Z,54.47
2019-04-05T08:32:25.101Z,54.11
2019-04-05T08:34:59.293Z,53.04
2019-04-05T08:37:33.882Z,53.04
2019-04-05T08:40:08.299Z,53.26
2019-04-05T08:42:42.661Z,53.34
2019-04-05T08:45:17.335Z,52.54
2019-04-05T08:47:51.711Z,52.58
2019-04-05T08:50:26.050Z,52.43
2019-04-05T08:53:01.247Z,50.74
2019-04-05T08:55:35.891Z,50.74
2019-04-05T08:58:10.115Z,50.56
2019-04-05T09:00:44.568Z,48.85
2019-04-05T09:03:18.941Z,48.85
2019-04-05T09:05:53.268Z,48.85
2019-04-05T09:08:28.132Z,48.41
2019-04-05T09:11:02.751Z,48.14
2019-04-05T09:13:37.275Z,47.83
2019-04-05T09:16:11.959Z,47.76
2019-04-05T09:19:23.351Z,48.22
2019-04-05T09:21:53.850Z,48.22
2019-04-05T09:24:26.779Z,47.33
2019-04-05T09:27:01.300Z,47.59
2019-04-05T09:29:35.793Z,47.94
2019-04-05T09:32:08.627Z,48.65
2019-04-05T09:34:42.896Z,49.27
2019-04-05T09:37:17.118Z,48.55
2019-04-05T09:39:51.624Z,47.93
2019-04-05T09:42:25.901Z,47.93
2019-04-05T09:45:00.275Z,47.66
2019-04-05T09:47:34.744Z,47.76
2019-04-05T09:50:09.268Z,47.65
2019-04-05T09:52:43.890Z,47.04
2019-04-05T09:55:18.275Z,44.92
2019-04-05T09:57:52.710Z,44.99
2019-04-05T10:00:28.442Z,41.98
2019-04-05T10:03:02.884Z,38.32
2019-04-05T10:05:37.069Z,38.32
2019-04-05T10:08:11.763Z,36.38
2019-04-05T10:10:44.685Z,36.38
2019-04-05T10:13:19.102Z,34.81
2019-04-05T10:17:06.680Z,33.76
2019-04-05T10:19:49.858Z,34.78
2019-04-05T10:22:15.634Z,35.08
2019-04-05T10:24:49.948Z,36.20
2019-04-05T10:27:24.121Z,36.00
2019-04-05T10:29:58.331Z,36.55
2019-04-05T10:32:32.679Z,36.55
2019-04-05T10:35:07.542Z,37.17
2019-04-05T10:37:41.945Z,37.73
2019-04-05T10:40:16.689Z,38.67
2019-04-05T10:42:50.945Z,38.67
2019-04-05T10:45:25.280Z,39.77
2019-04-05T10:47:59.856Z,39.77
2019-04-05T10:50:34.224Z,39.47
2019-04-05T10:53:08.762Z,38.83
2019-04-05T10:55:41.704Z,36.98
2019-04-05T10:58:15.919Z,35.12
2019-04-05T11:00:51.644Z,33.65
2019-04-05T11:03:25.952Z,33.18
2019-04-05T11:06:00.141Z,31.79
2019-04-05T11:08:34.670Z,31.13
2019-04-05T11:11:07.620Z,29.70
2019-04-05T11:13:41.892Z,30.04
2019-04-05T11:16:17.277Z,30.79
2019-04-05T11:18:51.682Z,32.05
2019-04-05T11:21:26.107Z,31.87
2019-04-05T11:24:00.624Z,31.55
2019-04-05T11:26:35.272Z,30.23
2019-04-05T11:29:09.679Z,30.23
2019-04-05T11:31:56.412Z,28.20
2019-04-05T11:34:20.884Z,27.25
2019-04-05T11:36:55.327Z,27.25
2019-04-05T11:39:30.374Z,27.35
2019-04-05T11:42:06.317Z,27.35
2019-04-05T11:44:43.298Z,28.04
2019-04-05T11:47:19.388Z,26.95
2019-04-05T11:49:55.236Z,28.39
2019-04-05T11:52:30.281Z,27.81
2019-04-05T11:55:04.783Z,28.34
2019-04-05T11:57:41.073Z,28.95
2019-04-05T12:00:21.675Z,30.02
2019-04-05T12:03:01.971Z,30.43
2019-04-05T12:05:34.693Z,31.79
2019-04-05T12:08:09.290Z,32.27
2019-04-05T12:10:43.729Z,31.80
2019-04-05T12:13:18.796Z,30.51
2019-04-05T12:15:51.697Z,29.96
2019-04-05T12:18:25.919Z,29.25
2019-04-05T12:21:00.855Z,29.49
2019-04-05T12:23:36.344Z,28.91
2019-04-05T12:26:10.729Z,28.91
2019-04-05T12:28:43.844Z,28.07
2019-04-05T12:31:16.987Z,29.27
2019-04-05T12:33:52.537Z,28.43
2019-04-05T12:36:26.944Z,27.71
2019-04-05T12:39:01.607Z,29.53
2019-04-05T12:41:40.402Z,30.14
2019-04-05T12:44:15.148Z,31.67
2019-04-05T12:46:49.315Z,31.85
2019-04-05T12:49:23.757Z,31.85
2019-04-05T12:51:56.693Z,32.75
2019-04-05T12:54:30.942Z,33.28
2019-04-05T12:57:05.117Z,34.53
2019-04-05T12:59:39.674Z,36.16
2019-04-05T13:02:19.060Z,36.16
2019-04-05T13:04:50.873Z,36.77
2019-04-05T13:07:25.268Z,36.44
2019-04-05T13:09:59.720Z,36.41
2019-04-05T13:12:33.942Z,35.96
2019-04-05T13:15:12.940Z,35.91
2019-04-05T13:17:44.729Z,35.59
2019-04-05T13:20:19.300Z,35.92
2019-04-05T13:22:53.697Z,36.56
2019-04-05T13:25:28.089Z,35.86
2019-04-05T13:28:12.719Z,36.23
2019-04-05T13:30:38.898Z,37.10
2019-04-05T13:33:13.274Z,36.63
2019-04-05T13:35:47.746Z,34.56
2019-04-05T13:38:21.941Z,33.31
2019-04-05T13:40:57.118Z,33.31
2019-04-05T13:43:32.622Z,32.75
2019-04-05T13:46:07.257Z,34.18
2019-04-05T13:48:41.765Z,35.28
2019-04-05T13:51:26.924Z,35.93
2019-04-05T13:53:50.736Z,35.75
2019-04-05T13:56:25.118Z,34.97
2019-04-05T13:58:59.296Z,35.04
2019-04-05T14:01:33.696Z,35.04
2019-04-05T14:06:33.647Z,37.37
2019-04-05T14:09:10.485Z,37.37
2019-04-05T14:11:45.315Z,36.96
2019-04-05T14:14:19.703Z,37.16
2019-04-05T14:16:54.196Z,37.51
2019-04-05T14:21:26.694Z,38.57
2019-04-05T14:23:59.682Z,39.24
2019-04-05T14:26:34.322Z,39.08
2019-04-05T14:29:08.970Z,39.39
2019-04-05T14:31:43.315Z,39.44
2019-04-05T14:34:18.550Z,38.88
2019-04-05T14:36:53.255Z,38.70
2019-04-05T14:39:27.739Z,39.68
2019-04-05T14:42:09.501Z,39.93
2019-04-05T14:44:36.946Z,39.86
2019-04-05T14:47:11.336Z,40.10
2019-04-05T14:49:46.077Z,40.76
2019-04-05T14:52:20.701Z,40.68
2019-04-05T14:54:55.281Z,40.68
2019-04-05T14:57:29.888Z,41.22
2019-04-05T15:00:04.522Z,41.22
2019-04-05T15:02:39.277Z,39.97
2019-04-05T15:05:13.943Z,38.25
2019-04-05T15:07:50.794Z,37.33
2019-04-05T15:10:26.193Z,38.02
2019-04-05T15:13:01.225Z,37.67
2019-04-05T15:15:36.259Z,37.67
2019-04-05T15:18:11.962Z,37.95
2019-04-05T15:20:46.870Z,37.95
2019-04-05T15:23:21.270Z,38.72
2019-04-05T15:25:55.887Z,38.77
2019-04-05T15:28:29.580Z,39.24
2019-04-05T15:31:04.277Z,39.57
2019-04-05T15:33:39.606Z,39.57
2019-04-05T15:36:17.056Z,39.70
2019-04-05T15:38:52.712Z,40.21
2019-04-05T15:41:26.039Z,40.83
2019-04-05T15:43:58.857Z,42.04
2019-04-05T15:46:31.782Z,42.04
2019-04-05T15:49:06.074Z,42.50
2019-04-05T15:51:41.755Z,42.56
2019-04-05T15:54:14.640Z,43.31
2019-04-05T15:56:49.102Z,43.20
2019-04-05T15:59:23.698Z,43.96
2019-04-05T16:01:58.268Z,44.17
2019-04-05T16:04:32.693Z,44.17
2019-04-05T16:07:07.408Z,44.99
2019-04-05T16:09:41.937Z,45.47
2019-04-05T16:12:16.272Z,45.89
2019-04-05T16:14:51.890Z,45.99
2019-04-05T16:17:26.273Z,46.33
2019-04-05T16:20:00.880Z,46.44
2019-04-05T16:22:35.823Z,47.12
2019-04-05T16:25:10.577Z,47.30
2019-04-05T16:27:45.260Z,47.77
2019-04-05T16:30:19.712Z,48.02
2019-04-05T16:32:52.771Z,48.04
2019-04-05T16:35:26.938Z,48.45
2019-04-05T16:38:01.628Z,48.96
2019-04-05T16:40:36.096Z,48.96
2019-04-05T16:43:10.642Z,49.39
2019-04-05T16:45:44.950Z,49.39
2019-04-05T16:48:19.295Z,49.41
2019-04-05T16:50:53.929Z,49.69
2019-04-05T16:53:28.327Z,49.61
2019-04-05T16:56:02.947Z,49.64
2019-04-05T16:58:37.286Z,49.73
2019-04-05T17:01:11.940Z,49.27
2019-04-05T17:03:44.860Z,49.77
2019-04-05T17:06:19.144Z,50.12
2019-04-05T17:08:53.800Z,50.23
2019-04-05T17:11:27.940Z,50.62
2019-04-05T17:14:00.994Z,51.22
2019-04-05T17:16:35.337Z,51.53
2019-04-05T17:19:09.878Z,51.53
2019-04-05T17:21:44.277Z,51.45
2019-04-05T17:24:18.761Z,51.84
2019-04-05T17:26:51.755Z,51.95
2019-04-05T17:29:26.273Z,52.15
2019-04-05T17:32:00.746Z,52.50
2019-04-05T17:34:34.944Z,52.50
2019-04-05T17:37:09.273Z,52.70
2019-04-05T17:39:43.677Z,52.55
2019-04-05T17:42:16.710Z,52.75
2019-04-05T17:44:50.948Z,53.20
2019-04-05T17:47:25.296Z,53.45
2019-04-05T17:49:59.921Z,53.71
2019-04-05T17:52:34.615Z,53.83
2019-04-05T17:55:10.072Z,53.83
2019-04-05T17:57:44.865Z,54.01
2019-04-05T18:00:22.431Z,54.01
2019-04-05T18:02:56.919Z,54.21
2019-04-05T18:05:31.278Z,54.55
2019-04-05T18:08:05.722Z,54.66
2019-04-05T18:10:38.786Z,54.81
2019-04-05T18:13:12.942Z,54.94
2019-04-05T18:15:52.720Z,55.15
2019-04-05T18:18:23.654Z,55.11
2019-04-05T18:20:58.119Z,55.11
2019-04-05T18:23:32.754Z,55.51
2019-04-05T18:26:07.271Z,55.51
2019-04-05T18:28:41.793Z,55.69
2019-04-05T18:31:14.864Z,55.61
2019-04-05T18:33:48.900Z,55.61
2019-04-05T18:36:25.281Z,55.61
2019-04-05T18:39:00.077Z,55.96
2019-04-05T18:41:33.685Z,56.03
2019-04-05T18:44:08.269Z,56.43
2019-04-05T18:46:42.889Z,56.32
2019-04-05T18:49:17.650Z,56.56
2019-04-05T18:51:52.281Z,56.33
2019-04-05T18:54:26.693Z,56.65
2019-04-05T18:57:01.310Z,56.82
2019-04-05T18:59:35.855Z,56.82
2019-04-05T19:02:09.861Z,56.77
2019-04-05T19:04:43.944Z,56.77
2019-04-05T19:07:18.335Z,57.01
2019-04-05T19:09:53.508Z,57.49
2019-04-05T19:12:27.977Z,57.34
2019-04-05T19:15:02.466Z,57.40
2019-04-05T19:17:36.917Z,57.40
2019-04-05T19:20:11.941Z,57.52
2019-04-05T19:22:47.660Z,57.69
2019-04-05T19:25:22.114Z,57.72
2019-04-05T19:27:57.138Z,57.82
2019-04-05T19:48:44.277Z,58.10
2019-04-05T19:51:18.954Z,58.29
2019-04-05T19:54:00.830Z,58.56
2019-04-05T19:56:28.295Z,58.56
2019-04-05T19:59:02.751Z,58.56
2019-04-05T20:01:35.785Z,58.65
2019-04-05T20:04:10.198Z,59.04
2019-04-05T20:06:44.786Z,59.13
2019-04-05T20:09:18.122Z,59.23
2019-04-05T20:11:52.651Z,59.26
2019-04-05T20:14:27.055Z,59.26
2019-04-05T20:17:01.672Z,59.37
2019-04-05T20:19:36.301Z,59.63
2019-04-05T20:22:11.535Z,59.63
2019-04-05T20:24:46.786Z,59.51
2019-04-05T20:27:21.442Z,59.59
2019-04-05T20:29:56.280Z,59.85
2019-04-05T20:32:30.747Z,59.86
2019-04-05T20:35:03.707Z,59.90
2019-04-05T20:37:40.059Z,59.81
2019-04-05T20:40:14.704Z,60.48
2019-04-05T20:42:48.032Z,60.48
2019-04-05T20:45:21.122Z,60.59
2019-04-05T20:47:55.486Z,60.29
2019-04-05T20:50:30.289Z,60.29
2019-04-05T20:53:04.786Z,60.49
2019-04-05T20:55:39.280Z,60.49
2019-04-05T20:58:14.150Z,60.72
2019-04-05T21:00:48.743Z,60.76
2019-04-05T21:03:22.006Z,60.65
2019-04-05T21:05:56.644Z,60.91
2019-04-05T21:08:31.985Z,60.91
2019-04-05T21:11:06.749Z,61.15
2019-04-05T21:13:40.690Z,61.40
2019-04-05T21:16:15.299Z,61.40
2019-04-05T21:18:50.293Z,61.59
2019-04-05T21:21:25.291Z,61.55
2019-04-05T21:24:01.281Z,61.61
2019-04-05T21:26:35.968Z,61.59
2019-04-05T21:29:10.971Z,61.73
2019-04-05T21:31:45.901Z,61.72
2019-04-05T21:34:20.450Z,62.03
2019-04-05T21:36:55.943Z,61.99
2019-04-05T21:39:30.683Z,62.38
2019-04-05T21:42:04.126Z,62.38
2019-04-05T21:44:38.674Z,62.50
2019-04-05T21:47:12.064Z,62.57
2019-04-05T21:49:46.782Z,62.62
2019-04-05T21:52:21.436Z,62.62
2019-04-05T21:54:56.314Z,62.68
2019-04-05T21:57:31.291Z,62.96
2019-04-05T22:00:08.269Z,63.01
2019-04-05T22:02:43.266Z,62.96
2019-04-05T22:05:18.316Z,62.83
2019-04-05T22:07:53.300Z,62.53
2019-04-05T22:10:28.292Z,62.37
2019-04-05T22:13:04.536Z,62.49
2019-04-05T22:15:38.078Z,62.52
2019-04-05T22:20:39.754Z,62.92
2019-04-05T22:23:13.778Z,63.17
2019-04-05T22:25:48.503Z,62.92
2019-04-05T22:28:23.304Z,62.65
2019-04-05T22:30:57.991Z,62.65
2019-04-05T22:33:33.081Z,63.00
2019-04-05T22:36:07.836Z,63.00
2019-04-05T22:38:41.304Z,63.23
2019-04-05T22:41:15.714Z,62.94
2019-04-05T22:43:49.149Z,62.98
2019-04-05T22:46:23.731Z,62.98
2019-04-05T22:48:58.544Z,63.14
2019-04-05T22:51:33.569Z,63.60
2019-04-05T22:54:08.149Z,64.69
2019-04-05T22:57:50.740Z,63.84
2019-04-05T23:00:26.039Z,63.91
2019-04-05T23:03:01.136Z,63.91
2019-04-05T23:05:36.154Z,63.71
2019-04-05T23:08:11.818Z,63.82
2019-04-05T23:10:46.292Z,63.89
2019-04-05T23:13:20.789Z,63.75
2019-04-05T23:15:53.878Z,63.91
2019-04-05T23:18:28.300Z,63.54
2019-04-05T23:21:02.951Z,63.39
2019-04-05T23:23:37.741Z,63.73
2019-04-05T23:26:12.305Z,63.73
2019-04-05T23:28:46.951Z,63.89
2019-04-05T23:31:21.696Z,64.14
2019-04-05T23:33:54.894Z,64.14
2019-04-05T23:36:28.010Z,64.45
2019-04-05T23:39:00.870Z,64.32
2019-04-05T23:41:36.976Z,64.63
2019-04-05T23:44:11.967Z,64.47
2019-04-05T23:46:46.373Z,64.39
2019-04-05T23:49:21.175Z,64.36
2019-04-05T23:51:55.748Z,64.39
2019-04-05T23:54:30.307Z,64.47
2019-04-05T23:57:05.205Z,64.42
2019-04-05T23:59:39.781Z,64.24
